Time;durP1;ratioP1;P1;durP2;ratioP2;P2;SDS_P1;SDS_P2;PMS_P1;PMS_P2;Temp;Humidity;BMP_temperature;BMP_pressure;BME280_temperature;BME280_humidity;BME280_pressure;Samples;Min_cycle;Max_cycle;Signal;HPM_P1;HPM_P2
2023/01/13 00:02:02;;;;;;;1.47;0.70;;;;;;;;;;5002688;28;20224;-88
2023/01/13 00:05:08;;;;;;;2.67;0.80;;;;;;;;;;5013753;28;20181;-88
2023/01/13 00:08:12;;;;;;;1.17;0.70;;;;;;;;;;5013648;28;20555;-88
2023/01/13 00:11:18;;;;;;;3.03;0.77;;;;;;;;;;5014149;28;20213;-88
2023/01/13 00:14:25;;;;;;;2.53;0.60;;;;;;;;;;5024980;28;20181;-88
2023/01/13 00:17:29;;;;;;;1.77;0.87;;;;;;;;;;5025213;28;20180;-88
2023/01/13 00:20:33;;;;;;;3.27;1.00;;;;;;;;;;5024811;28;20523;-89
2023/01/13 00:23:38;;;;;;;3.87;1.00;;;;;;;;;;5024802;28;20173;-88
2023/01/13 00:26:42;;;;;;;1.80;0.80;;;;;;;;;;5024633;28;20181;-88
2023/01/13 00:29:46;;;;;;;4.27;1.40;;;;;;;;;;5024528;28;20173;-88
2023/01/13 00:32:50;;;;;;;1.37;0.80;;;;;;;;;;5025228;28;20172;-88
2023/01/13 00:35:56;;;;;;;2.23;0.70;;;;;;;;;;5002111;28;20172;-87
2023/01/13 00:39:02;;;;;;;1.50;0.80;;;;;;;;;;5002077;28;20180;-89
2023/01/13 00:45:29;;;;;;;3.23;0.70;;;;;;;;;;5013125;28;20208;-88
2023/01/13 00:48:34;;;;;;;2.33;0.80;;;;;;;;;;5024376;28;20192;-88
2023/01/13 00:51:38;;;;;;;1.90;0.80;;;;;;;;;;5027078;28;20205;-88
2023/01/13 00:54:42;;;;;;;0.60;0.57;;;;;;;;;;5017366;28;20185;-87
2023/01/13 00:57:46;;;;;;;2.63;0.80;;;;;;;;;;5016596;28;20177;-88
2023/01/13 01:00:50;;;;;;;2.23;0.70;;;;;;;;;;5039072;28;20224;-88
2023/01/13 01:03:55;;;;;;;2.90;0.80;;;;;;;;;;5015570;28;20185;-87
2023/01/13 01:06:59;;;;;;;1.67;0.70;;;;;;;;;;5016361;28;20181;-87
2023/01/13 01:10:04;;;;;;;0.80;0.60;;;;;;;;;;5004807;28;20177;-87
2023/01/13 01:13:10;;;;;;;1.30;0.80;;;;;;;;;;5011775;28;20169;-88
2023/01/13 01:16:16;;;;;;;1.83;0.73;;;;;;;;;;5012152;28;20185;-88
2023/01/13 01:19:19;;;;;;;2.97;0.87;;;;;;;;;;5012497;28;20173;-88
2023/01/13 01:22:24;;;;;;;2.27;0.60;;;;;;;;;;5023354;28;20225;-88
2023/01/13 01:25:27;;;;;;;0.73;0.50;;;;;;;;;;5012377;28;20188;-88
2023/01/13 01:28:33;;;;;;;1.80;0.77;;;;;;;;;;5000892;28;20197;-88
2023/01/13 01:31:37;;;;;;;1.73;0.77;;;;;;;;;;5012047;28;20209;-88
2023/01/13 01:34:41;;;;;;;1.93;0.97;;;;;;;;;;5001068;28;20192;-88
2023/01/13 01:37:45;;;;;;;1.20;0.60;;;;;;;;;;5000575;28;20197;-88
2023/01/13 01:40:50;;;;;;;3.00;0.83;;;;;;;;;;5023055;28;20212;-88
2023/01/13 01:43:58;;;;;;;1.93;0.70;;;;;;;;;;5000807;28;20204;-88
2023/01/13 01:47:03;;;;;;;2.90;1.13;;;;;;;;;;5023157;28;20184;-88
2023/01/13 01:50:08;;;;;;;2.50;0.70;;;;;;;;;;5011242;28;20176;-89
2023/01/13 01:53:17;;;;;;;1.63;0.60;;;;;;;;;;5011410;28;20181;-88
2023/01/13 01:56:21;;;;;;;3.50;0.97;;;;;;;;;;5011781;28;20182;-88
2023/01/13 01:59:28;;;;;;;3.20;1.07;;;;;;;;;;5022520;28;20180;-87
2023/01/13 02:02:34;;;;;;;2.43;0.70;;;;;;;;;;5011429;28;20258;-88
2023/01/13 02:05:38;;;;;;;1.50;0.80;;;;;;;;;;5000348;28;20181;-88
2023/01/13 02:08:42;;;;;;;3.13;0.87;;;;;;;;;;5022679;28;20656;-87
2023/01/13 02:15:14;;;;;;;0.90;0.60;;;;;;;;;;5011297;28;20181;-88
2023/01/13 02:18:24;;;;;;;2.70;0.80;;;;;;;;;;5022495;28;20177;-88
2023/01/13 02:21:49;;;;;;;1.80;0.80;;;;;;;;;;5011193;28;20216;-88
2023/01/13 02:25:32;;;;;;;1.77;0.57;;;;;;;;;;5010802;28;20185;-88
2023/01/13 02:32:44;;;;;;;1.67;0.70;;;;;;;;;;5010886;28;20212;-88
2023/01/13 02:36:19;;;;;;;1.67;0.60;;;;;;;;;;5022439;28;20632;-88
2023/01/13 02:40:04;;;;;;;3.33;1.23;;;;;;;;;;5005571;28;20204;-89
2023/01/13 02:46:52;;;;;;;1.50;0.70;;;;;;;;;;5021835;28;20563;-89
2023/01/13 02:50:03;;;;;;;0.87;0.60;;;;;;;;;;5010597;28;20660;-88
2023/01/13 02:53:14;;;;;;;4.83;0.90;;;;;;;;;;5010906;28;20621;-89
2023/01/13 02:56:21;;;;;;;2.50;0.70;;;;;;;;;;5010656;28;20181;-88
2023/01/13 02:59:26;;;;;;;1.20;0.57;;;;;;;;;;5010489;28;20173;-88
2023/01/13 03:02:30;;;;;;;1.17;0.70;;;;;;;;;;5021339;28;20220;-88
2023/01/13 03:05:35;;;;;;;0.93;0.60;;;;;;;;;;5010483;28;20188;-88
2023/01/13 03:08:49;;;;;;;2.10;0.60;;;;;;;;;;4998583;28;20192;-88
2023/01/13 03:12:32;;;;;;;2.57;0.63;;;;;;;;;;5010118;28;20208;-88
2023/01/13 03:16:07;;;;;;;1.27;0.60;;;;;;;;;;5021140;28;20185;-87
2023/01/13 03:19:20;;;;;;;5.20;0.60;;;;;;;;;;4998878;28;20177;-88
2023/01/13 03:22:45;;;;;;;1.37;0.57;;;;;;;;;;5020814;28;20220;-88
2023/01/13 03:26:01;;;;;;;1.10;0.70;;;;;;;;;;4999037;28;20185;-87
2023/01/13 03:29:23;;;;;;;0.80;0.60;;;;;;;;;;5010174;28;20181;-88
2023/01/13 03:32:32;;;;;;;1.60;0.53;;;;;;;;;;5009908;28;20217;-88
2023/01/13 03:35:40;;;;;;;0.50;0.43;;;;;;;;;;5012023;28;20634;-88
2023/01/13 03:38:51;;;;;;;1.60;0.70;;;;;;;;;;5013670;28;20193;-88
2023/01/13 03:42:17;;;;;;;1.30;0.50;;;;;;;;;;5013322;28;20691;-88
2023/01/13 03:45:21;;;;;;;2.23;0.60;;;;;;;;;;5013966;28;20189;-88
2023/01/13 03:48:28;;;;;;;1.00;0.57;;;;;;;;;;5013328;28;20628;-88
2023/01/13 03:51:33;;;;;;;1.63;0.57;;;;;;;;;;5024528;28;20212;-87
2023/01/13 03:54:50;;;;;;;0.80;0.50;;;;;;;;;;5013474;28;20541;-88
2023/01/13 03:58:02;;;;;;;1.10;0.60;;;;;;;;;;5013612;28;20181;-88
2023/01/13 04:01:20;;;;;;;1.43;0.50;;;;;;;;;;5013178;28;20212;-88
2023/01/13 04:04:32;;;;;;;3.90;0.50;;;;;;;;;;5013384;28;20174;-88
2023/01/13 04:07:44;;;;;;;4.07;0.50;;;;;;;;;;5013389;28;20192;-88
2023/01/13 04:11:10;;;;;;;1.33;0.60;;;;;;;;;;5012955;28;20220;-87
2023/01/13 04:14:18;;;;;;;1.63;0.60;;;;;;;;;;5001767;28;20544;-87
2023/01/13 04:17:23;;;;;;;0.50;0.40;;;;;;;;;;5013884;28;20185;-88
2023/01/13 04:20:27;;;;;;;1.10;0.60;;;;;;;;;;5024092;28;20181;-88
2023/01/13 04:23:32;;;;;;;0.63;0.50;;;;;;;;;;5012768;28;20275;-88
2023/01/13 04:26:36;;;;;;;3.60;0.70;;;;;;;;;;5012729;28;20189;-88
2023/01/13 04:29:40;;;;;;;1.70;0.60;;;;;;;;;;5025646;28;20197;-87
2023/01/13 04:32:44;;;;;;;0.40;0.40;;;;;;;;;;5025570;28;20668;-87
2023/01/13 04:35:48;;;;;;;2.43;0.50;;;;;;;;;;5013882;28;20176;-88
2023/01/13 04:38:56;;;;;;;0.70;0.50;;;;;;;;;;5037469;28;20181;-87
2023/01/13 04:42:01;;;;;;;1.20;0.43;;;;;;;;;;5003105;28;20212;-87
2023/01/13 04:45:05;;;;;;;1.20;0.50;;;;;;;;;;5013819;28;20200;-87
2023/01/13 04:48:09;;;;;;;0.97;0.60;;;;;;;;;;5012825;28;20572;-87
2023/01/13 04:51:14;;;;;;;1.43;0.67;;;;;;;;;;5002114;28;20684;-87
2023/01/13 04:54:18;;;;;;;1.30;0.50;;;;;;;;;;5013265;28;20172;-87
2023/01/13 04:57:22;;;;;;;0.97;0.67;;;;;;;;;;5013180;28;20184;-88
2023/01/13 05:00:26;;;;;;;0.87;0.50;;;;;;;;;;5013731;28;20182;-87
2023/01/13 05:03:30;;;;;;;1.13;0.63;;;;;;;;;;5025821;28;20205;-88
2023/01/13 05:06:35;;;;;;;0.50;0.50;;;;;;;;;;5003435;28;20181;-88
2023/01/13 05:09:39;;;;;;;1.37;0.60;;;;;;;;;;5013486;28;20181;-88
2023/01/13 05:19:33;;;;;;;2.83;0.57;;;;;;;;;;5013726;28;20173;-87
2023/01/13 05:26:00;;;;;;;1.13;0.57;;;;;;;;;;5013388;28;20185;-87
2023/01/13 05:29:04;;;;;;;5.87;0.70;;;;;;;;;;5024746;28;20177;-88
2023/01/13 05:32:09;;;;;;;0.97;0.50;;;;;;;;;;5024395;28;20216;-87
2023/01/13 05:35:14;;;;;;;3.23;0.53;;;;;;;;;;5002075;28;20197;-87
2023/01/13 05:38:19;;;;;;;1.63;0.70;;;;;;;;;;5024166;28;20624;-87
2023/01/13 05:44:45;;;;;;;1.50;0.60;;;;;;;;;;5011797;28;20196;-87
2023/01/13 05:47:50;;;;;;;1.50;0.60;;;;;;;;;;5012837;28;20656;-87
2023/01/13 05:50:54;;;;;;;1.23;0.70;;;;;;;;;;5036714;28;20212;-88
2023/01/13 05:53:58;;;;;;;1.40;0.60;;;;;;;;;;5013002;28;20173;-88
2023/01/13 05:57:02;;;;;;;1.27;0.50;;;;;;;;;;5014099;28;20545;-88
2023/01/13 06:00:07;;;;;;;0.77;0.50;;;;;;;;;;5026115;28;20177;-87
2023/01/13 06:03:21;;;;;;;1.93;0.50;;;;;;;;;;5035889;28;20692;-87
2023/01/13 06:06:25;;;;;;;1.10;0.50;;;;;;;;;;5023755;28;20177;-87
2023/01/13 06:09:29;;;;;;;1.53;0.67;;;;;;;;;;5012728;28;20177;-87
2023/01/13 06:12:33;;;;;;;0.60;0.50;;;;;;;;;;5001308;28;20208;-87
2023/01/13 06:15:37;;;;;;;1.20;0.70;;;;;;;;;;5002462;28;20173;-88
2023/01/13 06:18:41;;;;;;;0.63;0.57;;;;;;;;;;5003629;28;20180;-87
2023/01/13 06:21:47;;;;;;;1.73;0.63;;;;;;;;;;5002902;28;20208;-87
2023/01/13 06:24:53;;;;;;;3.87;0.60;;;;;;;;;;5012344;28;20177;-88
2023/01/13 06:27:59;;;;;;;0.97;0.70;;;;;;;;;;5012806;28;20185;-88
2023/01/13 06:31:06;;;;;;;0.87;0.70;;;;;;;;;;5013086;28;20224;-87
2023/01/13 06:34:12;;;;;;;1.10;0.60;;;;;;;;;;5013459;28;20176;-87
2023/01/13 06:37:20;;;;;;;1.37;0.70;;;;;;;;;;5012688;28;20185;-87
2023/01/13 06:40:24;;;;;;;1.17;0.70;;;;;;;;;;5013094;28;20181;-88
2023/01/13 06:43:29;;;;;;;1.37;0.70;;;;;;;;;;4999850;28;20555;-88
2023/01/13 06:46:34;;;;;;;0.87;0.50;;;;;;;;;;5022834;28;20177;-87
2023/01/13 06:49:38;;;;;;;2.27;0.60;;;;;;;;;;5011368;28;20176;-87
2023/01/13 06:52:42;;;;;;;0.83;0.70;;;;;;;;;;5025652;28;20216;-87
2023/01/13 06:55:46;;;;;;;1.50;0.80;;;;;;;;;;5014353;28;20636;-87
2023/01/13 06:58:50;;;;;;;1.57;0.67;;;;;;;;;;5014876;28;20177;-87
2023/01/13 07:01:55;;;;;;;2.57;0.70;;;;;;;;;;5015614;28;20224;-87
2023/01/13 07:04:59;;;;;;;2.57;2.30;;;;;;;;;;5004357;28;20168;-87
2023/01/13 07:08:04;;;;;;;1.83;1.60;;;;;;;;;;5015462;28;20177;-87
2023/01/13 07:11:08;;;;;;;1.67;1.00;;;;;;;;;;5003010;28;20687;-87
2023/01/13 07:17:34;;;;;;;1.03;0.70;;;;;;;;;;5013925;28;20185;-87
2023/01/13 07:20:39;;;;;;;1.33;0.50;;;;;;;;;;5019336;28;20177;-87
2023/01/13 07:23:44;;;;;;;2.60;0.70;;;;;;;;;;5031399;28;20224;-87
2023/01/13 07:26:50;;;;;;;1.40;0.70;;;;;;;;;;5018343;28;20181;-88
2023/01/13 07:29:54;;;;;;;1.63;0.93;;;;;;;;;;5007467;28;20189;-88
2023/01/13 07:32:58;;;;;;;1.37;0.60;;;;;;;;;;5019460;28;20509;-87
2023/01/13 07:36:04;;;;;;;1.30;0.93;;;;;;;;;;5007919;28;20173;-88
2023/01/13 07:39:08;;;;;;;0.90;0.50;;;;;;;;;;5019798;28;20177;-88
2023/01/13 07:45:36;;;;;;;1.93;0.70;;;;;;;;;;5018552;28;20197;-87
2023/01/13 07:48:40;;;;;;;0.87;0.70;;;;;;;;;;5017246;28;20173;-88
2023/01/13 07:51:44;;;;;;;1.43;0.73;;;;;;;;;;5017272;28;20220;-87
2023/01/13 07:54:49;;;;;;;3.57;3.27;;;;;;;;;;5017309;28;20173;-87
2023/01/13 07:57:53;;;;;;;4.23;3.83;;;;;;;;;;5016539;28;20177;-87
2023/01/13 08:00:57;;;;;;;2.30;1.80;;;;;;;;;;5016023;28;20568;-88
2023/01/13 08:04:01;;;;;;;1.00;0.83;;;;;;;;;;5026125;28;20204;-87
2023/01/13 08:07:06;;;;;;;1.77;1.03;;;;;;;;;;5015010;28;20177;-88
2023/01/13 08:10:10;;;;;;;1.30;0.90;;;;;;;;;;5003611;28;20176;-87
2023/01/13 08:13:16;;;;;;;0.50;0.50;;;;;;;;;;5013817;28;20173;-87
2023/01/13 08:16:20;;;;;;;1.23;0.60;;;;;;;;;;5014346;28;20177;-88
2023/01/13 08:19:24;;;;;;;1.43;0.80;;;;;;;;;;5013022;28;20185;-87
2023/01/13 08:22:29;;;;;;;1.13;0.60;;;;;;;;;;5004389;28;20220;-87
2023/01/13 08:25:34;;;;;;;0.97;0.60;;;;;;;;;;5027344;28;20169;-88
2023/01/13 08:28:41;;;;;;;0.70;0.50;;;;;;;;;;5026989;28;20663;-88
2023/01/13 08:31:45;;;;;;;0.67;0.60;;;;;;;;;;5026710;28;20221;-88
2023/01/13 08:34:49;;;;;;;0.97;0.63;;;;;;;;;;5015162;28;20192;-88
2023/01/13 08:37:53;;;;;;;1.83;0.70;;;;;;;;;;5027462;28;20172;-88
2023/01/13 08:40:58;;;;;;;0.87;0.57;;;;;;;;;;5004261;28;20220;-87
2023/01/13 08:44:02;;;;;;;0.97;0.50;;;;;;;;;;5027569;28;20695;-88
2023/01/13 08:47:07;;;;;;;1.47;0.50;;;;;;;;;;5015844;28;20533;-88
2023/01/13 08:50:11;;;;;;;0.93;0.50;;;;;;;;;;5004564;28;20177;-88
2023/01/13 08:53:15;;;;;;;0.90;0.50;;;;;;;;;;5026332;28;20201;-88
2023/01/13 08:56:19;;;;;;;0.60;0.50;;;;;;;;;;5015893;28;20181;-87
2023/01/13 08:59:24;;;;;;;2.03;0.50;;;;;;;;;;5015483;28;20640;-87
2023/01/13 09:02:28;;;;;;;0.63;0.50;;;;;;;;;;5015834;28;20216;-87
2023/01/13 09:05:34;;;;;;;0.83;0.57;;;;;;;;;;5015200;28;20177;-88
2023/01/13 09:08:38;;;;;;;0.90;0.40;;;;;;;;;;5015352;28;20172;-88
2023/01/13 09:15:07;;;;;;;0.60;0.47;;;;;;;;;;5014478;28;20173;-88
2023/01/13 09:18:12;;;;;;;1.00;0.50;;;;;;;;;;5014569;28;20193;-88
2023/01/13 09:21:18;;;;;;;2.53;2.30;;;;;;;;;;5025941;28;20216;-88
2023/01/13 09:24:23;;;;;;;2.40;0.73;;;;;;;;;;5014804;28;20572;-88
2023/01/13 09:27:27;;;;;;;1.27;0.53;;;;;;;;;;5015008;28;20181;-88
2023/01/13 09:30:31;;;;;;;0.90;0.50;;;;;;;;;;5014789;28;20540;-87
2023/01/13 09:36:59;;;;;;;0.77;0.50;;;;;;;;;;5014294;28;20175;-87
2023/01/13 09:40:11;;;;;;;1.60;0.70;;;;;;;;;;5026011;28;20177;-88
2023/01/13 09:46:50;;;;;;;1.43;0.50;;;;;;;;;;5025196;28;20173;-87
2023/01/13 09:50:02;;;;;;;0.67;0.50;;;;;;;;;;5013929;28;20177;-88
2023/01/13 09:53:13;;;;;;;2.53;0.60;;;;;;;;;;5014157;28;20177;-88
2023/01/13 09:56:17;;;;;;;1.73;0.90;;;;;;;;;;5025792;28;20181;-88
2023/01/13 09:59:22;;;;;;;1.20;0.70;;;;;;;;;;5014188;28;20176;-88
2023/01/13 10:02:32;;;;;;;1.33;0.60;;;;;;;;;;5012926;28;20575;-88
2023/01/13 10:05:43;;;;;;;0.70;0.50;;;;;;;;;;5024553;28;20672;-88
2023/01/13 10:08:48;;;;;;;0.70;0.50;;;;;;;;;;5013534;28;20177;-88
2023/01/13 10:15:22;;;;;;;0.90;0.60;;;;;;;;;;5013251;28;20636;-88
2023/01/13 10:18:36;;;;;;;1.87;0.50;;;;;;;;;;5012297;28;20185;-88
2023/01/13 10:22:22;;;;;;;0.80;0.60;;;;;;;;;;5011598;28;20561;-88
2023/01/13 10:25:39;;;;;;;1.33;0.80;;;;;;;;;;4989500;28;20565;-88
2023/01/13 10:28:50;;;;;;;0.93;0.43;;;;;;;;;;5011525;28;20177;-88
2023/01/13 10:31:56;;;;;;;1.30;0.60;;;;;;;;;;5000106;28;20561;-87
2023/01/13 10:35:01;;;;;;;2.10;0.60;;;;;;;;;;5012559;28;20169;-88
2023/01/13 10:38:15;;;;;;;1.23;0.60;;;;;;;;;;5011675;28;20181;-88
2023/01/13 10:41:26;;;;;;;1.10;0.77;;;;;;;;;;5022293;28;20212;-88
2023/01/13 10:44:30;;;;;;;0.80;0.63;;;;;;;;;;5032576;28;20220;-88
2023/01/13 10:47:35;;;;;;;1.87;0.50;;;;;;;;;;5010881;28;20189;-88
2023/01/13 10:50:40;;;;;;;6.50;3.40;;;;;;;;;;5010695;28;20526;-88
2023/01/13 10:53:57;;;;;;;1.70;0.60;;;;;;;;;;5010425;28;20192;-88
2023/01/13 10:57:22;;;;;;;2.70;0.70;;;;;;;;;;5010400;28;20177;-87
2023/01/13 11:00:30;;;;;;;1.00;0.90;;;;;;;;;;5010830;28;20185;-88
2023/01/13 11:03:40;;;;;;;1.27;0.50;;;;;;;;;;5034070;28;20184;-88
2023/01/13 11:06:44;;;;;;;1.23;0.60;;;;;;;;;;5010661;28;20174;-88
2023/01/13 11:10:07;;;;;;;1.63;0.70;;;;;;;;;;5010986;28;20526;-88
2023/01/13 11:13:17;;;;;;;0.97;0.60;;;;;;;;;;5010494;28;20538;-88
2023/01/13 11:16:21;;;;;;;1.50;0.80;;;;;;;;;;5010488;28;20577;-88
2023/01/13 11:19:30;;;;;;;1.70;0.67;;;;;;;;;;5021985;28;20185;-88
2023/01/13 11:22:42;;;;;;;2.80;0.80;;;;;;;;;;5010377;28;20212;-88
2023/01/13 11:25:53;;;;;;;2.00;0.60;;;;;;;;;;5021429;28;20584;-88
2023/01/13 11:29:09;;;;;;;1.10;0.67;;;;;;;;;;5021579;28;20177;-88
2023/01/13 11:32:17;;;;;;;0.93;0.50;;;;;;;;;;5021633;28;20217;-88
2023/01/13 11:35:23;;;;;;;1.23;0.77;;;;;;;;;;5010628;28;20582;-88
2023/01/13 11:38:43;;;;;;;4.13;0.80;;;;;;;;;;5010511;28;20181;-88
2023/01/13 11:45:38;;;;;;;1.43;0.50;;;;;;;;;;5010821;28;20224;-88
2023/01/13 11:48:42;;;;;;;3.90;0.40;;;;;;;;;;5011006;28;20521;-88
2023/01/13 11:52:30;;;;;;;0.97;0.50;;;;;;;;;;5010146;28;20709;-89
2023/01/13 11:55:48;;;;;;;1.53;0.60;;;;;;;;;;4968697;28;20567;-88
2023/01/13 11:59:01;;;;;;;0.87;0.70;;;;;;;;;;5014215;28;20525;-89
2023/01/13 12:02:05;;;;;;;1.70;0.40;;;;;;;;;;5014783;28;20208;-88
2023/01/13 12:05:18;;;;;;;2.33;0.50;;;;;;;;;;5014529;28;20204;-89
2023/01/13 12:08:42;;;;;;;0.50;0.43;;;;;;;;;;5014308;28;20181;-88
2023/01/13 12:15:19;;;;;;;1.53;0.50;;;;;;;;;;5013998;28;20177;-88
2023/01/13 12:18:33;;;;;;;0.43;0.40;;;;;;;;;;5014691;28;20211;-88
2023/01/13 12:21:45;;;;;;;1.50;0.60;;;;;;;;;;5014629;28;20213;-88
2023/01/13 12:25:12;;;;;;;0.63;0.40;;;;;;;;;;5014119;28;20205;-88
2023/01/13 12:28:23;;;;;;;2.27;1.10;;;;;;;;;;5014187;28;20184;-88
2023/01/13 12:31:29;;;;;;;1.57;1.20;;;;;;;;;;5013823;28;20213;-87
2023/01/13 12:34:47;;;;;;;3.73;0.80;;;;;;;;;;5019465;28;20173;-87
2023/01/13 12:37:54;;;;;;;2.83;0.80;;;;;;;;;;5021102;28;20182;-87
2023/01/13 12:41:05;;;;;;;2.90;1.83;;;;;;;;;;5016122;28;20212;-87
2023/01/13 12:44:16;;;;;;;2.80;2.57;;;;;;;;;;5015482;28;20572;-88
2023/01/13 12:47:36;;;;;;;2.40;1.30;;;;;;;;;;5026650;28;20175;-87
2023/01/13 12:50:41;;;;;;;27.93;14.90;;;;;;;;;;5026172;28;20196;-87
2023/01/13 12:53:45;;;;;;;1.00;0.80;;;;;;;;;;5013956;28;20546;-88
2023/01/13 12:56:50;;;;;;;0.60;0.60;;;;;;;;;;5014169;28;20181;-88
2023/01/13 13:00:03;;;;;;;0.50;0.50;;;;;;;;;;5013401;28;20177;-88
2023/01/13 13:03:11;;;;;;;0.93;0.50;;;;;;;;;;5013860;28;20189;-88
2023/01/13 13:06:22;;;;;;;0.90;0.50;;;;;;;;;;5001916;28;20205;-88
2023/01/13 13:09:31;;;;;;;1.10;1.00;;;;;;;;;;5012960;28;20637;-88
2023/01/13 13:16:26;;;;;;;3.20;2.13;;;;;;;;;;5012709;28;20173;-88
2023/01/13 13:19:30;;;;;;;2.80;2.60;;;;;;;;;;5012850;28;20181;-89
2023/01/13 13:22:43;;;;;;;4.97;4.40;;;;;;;;;;5001615;28;20212;-88
2023/01/13 13:26:11;;;;;;;5.43;4.93;;;;;;;;;;5012329;28;20205;-88
2023/01/13 13:29:27;;;;;;;4.43;2.97;;;;;;;;;;5005664;28;20177;-87
2023/01/13 13:32:42;;;;;;;3.57;0.90;;;;;;;;;;5039770;28;20242;-86
2023/01/13 13:36:17;;;;;;;1.27;0.60;;;;;;;;;;5020183;28;20587;-86
2023/01/13 13:46:48;;;;;;;0.77;0.60;;;;;;;;;;5014857;28;20204;-86
2023/01/13 13:49:53;;;;;;;2.10;0.50;;;;;;;;;;5015208;28;20544;-86
2023/01/13 13:53:04;;;;;;;1.97;1.10;;;;;;;;;;5014706;28;20173;-87
2023/01/13 13:56:23;;;;;;;2.47;1.40;;;;;;;;;;5014745;28;20174;-87
2023/01/13 13:59:32;;;;;;;1.63;1.30;;;;;;;;;;5014184;28;20632;-87
2023/01/13 14:02:36;;;;;;;4.23;1.23;;;;;;;;;;5001641;28;20208;-87
2023/01/13 14:05:55;;;;;;;1.10;0.80;;;;;;;;;;5024230;28;20208;-88
2023/01/13 14:09:01;;;;;;;3.50;1.00;;;;;;;;;;5024357;28;20177;-86
2023/01/13 14:12:22;;;;;;;3.57;1.50;;;;;;;;;;5025559;28;20216;-87
2023/01/13 14:15:30;;;;;;;3.20;0.90;;;;;;;;;;5013465;28;20637;-88
2023/01/13 14:18:44;;;;;;;2.50;1.90;;;;;;;;;;5012226;28;20177;-88
2023/01/13 14:21:48;;;;;;;1.97;1.00;;;;;;;;;;5022929;28;20216;-88
2023/01/13 14:24:56;;;;;;;23.43;9.90;;;;;;;;;;5022696;28;20176;-87
2023/01/13 14:28:29;;;;;;;5.30;4.00;;;;;;;;;;5012029;28;20177;-88
2023/01/13 14:31:33;;;;;;;2.10;0.90;;;;;;;;;;5010941;28;20216;-88
2023/01/13 14:34:37;;;;;;;3.83;1.10;;;;;;;;;;5011103;28;20633;-88
2023/01/13 14:37:44;;;;;;;1.83;1.43;;;;;;;;;;5010982;28;20185;-88
2023/01/13 14:40:49;;;;;;;2.70;0.90;;;;;;;;;;4999799;28;20216;-88
2023/01/13 14:43:58;;;;;;;42.03;20.47;;;;;;;;;;5010298;28;20200;-88
2023/01/13 14:47:21;;;;;;;3.27;1.60;;;;;;;;;;5011105;28;20706;-88
2023/01/13 14:50:32;;;;;;;2.10;0.63;;;;;;;;;;5022830;28;20284;-87
2023/01/13 14:53:42;;;;;;;3.57;1.00;;;;;;;;;;5011604;28;20172;-88
2023/01/13 14:56:52;;;;;;;2.67;1.00;;;;;;;;;;5011481;28;20169;-88
2023/01/13 15:00:14;;;;;;;3.33;1.00;;;;;;;;;;5010913;28;20521;-88
2023/01/13 15:03:20;;;;;;;2.70;0.53;;;;;;;;;;4999863;28;20173;-88
2023/01/13 15:06:25;;;;;;;4.47;1.17;;;;;;;;;;5012154;28;20204;-88
2023/01/13 15:09:40;;;;;;;1.63;1.10;;;;;;;;;;5012154;28;20181;-88
2023/01/13 15:12:45;;;;;;;7.47;1.70;;;;;;;;;;5012041;28;20224;-88
2023/01/13 15:15:52;;;;;;;3.13;0.87;;;;;;;;;;5011544;28;20177;-88
2023/01/13 15:18:56;;;;;;;3.70;1.00;;;;;;;;;;5011303;28;20173;-88
2023/01/13 15:22:00;;;;;;;2.53;1.60;;;;;;;;;;5011370;28;20208;-88
2023/01/13 15:25:05;;;;;;;25.57;14.60;;;;;;;;;;5022183;28;20181;-88
2023/01/13 15:28:19;;;;;;;4.57;2.77;;;;;;;;;;5010732;28;20197;-87
2023/01/13 15:31:24;;;;;;;8.80;5.30;;;;;;;;;;5012300;28;20212;-88
2023/01/13 15:34:28;;;;;;;3.47;2.80;;;;;;;;;;5014476;28;20184;-88
2023/01/13 15:37:33;;;;;;;68.43;38.53;;;;;;;;;;5014704;28;20176;-88
2023/01/13 15:40:37;;;;;;;40.00;26.70;;;;;;;;;;5014287;28;20173;-87
2023/01/13 15:47:07;;;;;;;10.77;9.80;;;;;;;;;;5014728;28;20209;-88
2023/01/13 15:50:17;;;;;;;4.93;4.23;;;;;;;;;;5025596;28;20177;-88
2023/01/13 15:53:22;;;;;;;7.97;7.00;;;;;;;;;;5025693;28;20181;-88
2023/01/13 15:56:27;;;;;;;7.37;4.80;;;;;;;;;;5002851;28;20173;-88
2023/01/13 15:59:32;;;;;;;6.53;5.03;;;;;;;;;;5003276;28;20189;-88
2023/01/13 16:02:36;;;;;;;16.03;9.80;;;;;;;;;;5025015;28;20212;-88
2023/01/13 16:05:42;;;;;;;46.27;23.80;;;;;;;;;;5036544;28;20568;-88
2023/01/13 16:08:45;;;;;;;57.03;31.13;;;;;;;;;;5025212;28;20181;-88
2023/01/13 16:11:50;;;;;;;19.47;11.67;;;;;;;;;;5014064;28;20216;-88
2023/01/13 16:14:54;;;;;;;34.77;26.87;;;;;;;;;;5013818;28;20660;-88
2023/01/13 16:18:02;;;;;;;20.47;16.50;;;;;;;;;;5013842;28;20177;-88
2023/01/13 16:21:10;;;;;;;5.67;4.47;;;;;;;;;;5014085;28;20220;-88
2023/01/13 16:24:14;;;;;;;3.67;1.60;;;;;;;;;;5013878;28;20794;-88
2023/01/13 16:27:22;;;;;;;3.83;1.23;;;;;;;;;;5025763;28;20683;-88
2023/01/13 16:30:28;;;;;;;5.37;1.20;;;;;;;;;;5025334;28;20177;-88
2023/01/13 16:33:33;;;;;;;3.60;1.17;;;;;;;;;;5014252;28;20196;-87
2023/01/13 16:36:37;;;;;;;2.93;0.90;;;;;;;;;;5002422;28;20177;-88
2023/01/13 16:39:41;;;;;;;7.40;1.37;;;;;;;;;;5013429;28;20177;-88
2023/01/13 16:42:45;;;;;;;3.43;1.00;;;;;;;;;;5012173;28;20212;-88
2023/01/13 16:45:49;;;;;;;4.63;1.47;;;;;;;;;;5002552;28;20212;-88
2023/01/13 16:48:56;;;;;;;2.53;1.70;;;;;;;;;;5002084;28;20188;-88
2023/01/13 16:52:00;;;;;;;3.83;1.60;;;;;;;;;;5002040;28;20212;-87
2023/01/13 16:55:05;;;;;;;6.57;3.80;;;;;;;;;;5013118;28;20173;-88
2023/01/13 16:58:16;;;;;;;15.83;10.63;;;;;;;;;;5012776;28;20177;-88
2023/01/13 17:01:24;;;;;;;12.30;8.20;;;;;;;;;;5012526;28;20216;-88
2023/01/13 17:04:29;;;;;;;10.03;5.20;;;;;;;;;;5012867;28;20181;-88
2023/01/13 17:07:32;;;;;;;14.23;8.30;;;;;;;;;;5012899;28;20209;-88
2023/01/13 17:10:36;;;;;;;14.67;12.20;;;;;;;;;;5012930;28;20176;-87
2023/01/13 17:13:41;;;;;;;13.10;10.50;;;;;;;;;;5023844;28;20181;-88
2023/01/13 17:16:45;;;;;;;10.37;6.27;;;;;;;;;;5012236;28;20169;-88
2023/01/13 17:19:51;;;;;;;13.70;6.17;;;;;;;;;;5023301;28;20181;-88
2023/01/13 17:22:54;;;;;;;9.43;6.73;;;;;;;;;;5011780;28;20220;-88
2023/01/13 17:25:59;;;;;;;8.30;5.80;;;;;;;;;;5011987;28;20204;-88
2023/01/13 17:29:05;;;;;;;4.37;2.93;;;;;;;;;;5011790;28;20544;-88
2023/01/13 17:32:17;;;;;;;4.40;2.37;;;;;;;;;;5022943;28;20217;-88
2023/01/13 17:35:23;;;;;;;4.23;2.27;;;;;;;;;;5012171;28;20181;-87
2023/01/13 17:38:27;;;;;;;3.67;1.37;;;;;;;;;;5022839;28;20193;-88
2023/01/13 17:41:31;;;;;;;2.87;1.63;;;;;;;;;;5011422;28;20216;-88
2023/01/13 17:44:36;;;;;;;15.93;7.57;;;;;;;;;;5000348;28;20668;-88
2023/01/13 17:47:40;;;;;;;14.17;9.67;;;;;;;;;;5022748;28;20220;-86
2023/01/13 17:50:50;;;;;;;14.17;9.77;;;;;;;;;;5000836;28;20656;-88
2023/01/13 17:53:54;;;;;;;9.60;7.50;;;;;;;;;;5022493;28;20196;-88
2023/01/13 17:56:58;;;;;;;13.30;7.77;;;;;;;;;;5011346;28;20177;-88
2023/01/13 18:00:03;;;;;;;13.57;7.23;;;;;;;;;;5011661;28;20193;-87
2023/01/13 18:03:17;;;;;;;8.97;5.57;;;;;;;;;;5013022;28;20176;-88
2023/01/13 18:06:22;;;;;;;7.90;4.07;;;;;;;;;;5011763;28;20213;-87
2023/01/13 18:09:26;;;;;;;6.43;3.20;;;;;;;;;;5011672;28;20192;-87
2023/01/13 18:12:30;;;;;;;8.37;2.60;;;;;;;;;;4999895;28;20216;-88
2023/01/13 18:15:35;;;;;;;9.80;4.00;;;;;;;;;;5011756;28;20196;-88
2023/01/13 18:18:41;;;;;;;7.70;3.67;;;;;;;;;;5022704;28;20193;-88
2023/01/13 18:28:33;;;;;;;4.20;2.93;;;;;;;;;;5010924;28;20174;-88
2023/01/13 18:31:38;;;;;;;5.77;3.40;;;;;;;;;;5011826;28;20212;-88
2023/01/13 18:34:42;;;;;;;6.27;2.80;;;;;;;;;;5022740;28;20177;-87
2023/01/13 18:37:46;;;;;;;6.80;2.90;;;;;;;;;;5022245;28;20173;-88
2023/01/13 18:40:51;;;;;;;6.17;2.73;;;;;;;;;;5012020;28;20212;-88
2023/01/13 18:43:55;;;;;;;8.10;2.83;;;;;;;;;;5000300;28;20205;-88
2023/01/13 18:46:59;;;;;;;9.27;3.40;;;;;;;;;;5014542;28;20212;-88
2023/01/13 18:50:04;;;;;;;6.53;3.07;;;;;;;;;;5015788;28;20176;-88
2023/01/13 18:53:08;;;;;;;5.43;2.73;;;;;;;;;;5012966;28;20192;-88
2023/01/13 18:56:12;;;;;;;5.67;3.60;;;;;;;;;;5011797;28;20188;-88
2023/01/13 18:59:17;;;;;;;9.70;4.83;;;;;;;;;;5000823;28;20181;-88
2023/01/13 19:02:26;;;;;;;5.43;2.40;;;;;;;;;;5012479;28;20213;-88
2023/01/13 19:05:30;;;;;;;6.67;2.17;;;;;;;;;;5013930;28;20177;-88
2023/01/13 19:08:35;;;;;;;3.97;3.03;;;;;;;;;;5012985;28;20580;-89
2023/01/13 19:11:40;;;;;;;2.73;2.00;;;;;;;;;;5011399;28;20212;-88
2023/01/13 19:14:46;;;;;;;5.73;1.80;;;;;;;;;;5011040;28;20177;-87
2023/01/13 19:17:50;;;;;;;3.80;1.40;;;;;;;;;;5010544;28;20173;-88
2023/01/13 19:20:59;;;;;;;1.83;1.30;;;;;;;;;;5010497;28;20216;-88
2023/01/13 19:24:04;;;;;;;4.40;1.70;;;;;;;;;;5010301;28;20177;-88
2023/01/13 19:27:13;;;;;;;4.53;1.60;;;;;;;;;;5021498;28;20204;-88
2023/01/13 19:30:17;;;;;;;5.47;2.00;;;;;;;;;;5010856;28;20177;-88
2023/01/13 19:33:22;;;;;;;3.27;1.50;;;;;;;;;;5012381;28;20525;-87
2023/01/13 19:36:25;;;;;;;3.47;1.40;;;;;;;;;;5014789;28;20172;-87
2023/01/13 19:39:33;;;;;;;3.80;1.80;;;;;;;;;;5015260;28;20185;-87
2023/01/13 19:46:00;;;;;;;2.40;2.17;;;;;;;;;;5015144;28;20181;-88
2023/01/13 19:49:04;;;;;;;3.97;2.87;;;;;;;;;;5015291;28;20188;-87
2023/01/13 19:52:09;;;;;;;3.43;2.50;;;;;;;;;;5003744;28;20213;-88
2023/01/13 19:55:13;;;;;;;2.87;2.03;;;;;;;;;;5016104;28;20177;-88
2023/01/13 19:58:18;;;;;;;4.50;2.70;;;;;;;;;;5018833;28;20193;-88
2023/01/13 20:01:30;;;;;;;4.20;3.40;;;;;;;;;;5019061;28;20213;-88
2023/01/13 20:04:37;;;;;;;7.90;4.00;;;;;;;;;;5020623;28;20656;-89